createdAt,value
2023-04-14T00:01:40.080Z,6.40
2023-04-14T00:04:08.410Z,6.50
2023-04-14T00:06:36.704Z,6.40
2023-04-14T00:09:04.808Z,6.30
2023-04-14T00:11:32.900Z,6.20
2023-04-14T00:14:04.337Z,6.30
2023-04-14T00:16:32.474Z,6.30
2023-04-14T00:19:00.741Z,6.30
2023-04-14T00:21:29.446Z,6.30
2023-04-14T00:23:58.067Z,6.30
2023-04-14T00:26:26.275Z,6.30
2023-04-14T00:28:54.375Z,6.20
2023-04-14T00:31:22.507Z,6.10
2023-04-14T00:33:50.635Z,6.10
2023-04-14T00:36:18.774Z,6.10
2023-04-14T00:38:46.831Z,6.10
2023-04-14T00:41:14.888Z,6.10
2023-04-14T00:43:42.931Z,6.00
2023-04-14T00:46:11.213Z,6.00
2023-04-14T00:48:39.382Z,5.90
2023-04-14T00:51:07.533Z,5.80
2023-04-14T00:53:35.640Z,5.70
2023-04-14T00:56:03.933Z,5.70
2023-04-14T00:58:35.330Z,5.80
2023-04-14T01:01:03.586Z,5.80
2023-04-14T01:03:35.118Z,5.90
2023-04-14T01:06:04.472Z,5.80
2023-04-14T01:08:33.366Z,5.90
2023-04-14T01:11:20.357Z,5.90
2023-04-14T01:13:54.539Z,6.00
2023-04-14T01:16:42.715Z,6.00
2023-04-14T01:19:30.319Z,6.00
2023-04-14T01:22:04.638Z,6.00
2023-04-14T01:24:50.184Z,6.00
2023-04-14T01:27:27.193Z,6.00
2023-04-14T01:29:58.205Z,6.10
2023-04-14T01:32:28.378Z,6.10
2023-04-14T01:35:09.619Z,6.00
2023-04-14T01:37:42.450Z,5.80
2023-04-14T01:40:17.422Z,5.70
2023-04-14T01:42:56.984Z,5.70
2023-04-14T01:45:26.767Z,5.50
2023-04-14T01:47:56.359Z,5.60
2023-04-14T01:50:26.560Z,5.70
2023-04-14T01:52:55.818Z,5.60
2023-04-14T01:55:25.177Z,5.60
2023-04-14T01:57:54.578Z,5.50
2023-04-14T02:00:23.086Z,5.50
2023-04-14T02:02:52.183Z,5.50
2023-04-14T02:05:20.962Z,5.50
2023-04-14T02:07:49.529Z,5.60
2023-04-14T02:10:19.849Z,5.60
2023-04-14T02:12:48.363Z,5.50
2023-04-14T02:15:19.940Z,5.50
2023-04-14T02:17:49.619Z,5.50
2023-04-14T02:20:18.319Z,5.40
2023-04-14T02:22:46.702Z,5.40
2023-04-14T02:25:14.894Z,5.40
2023-04-14T02:27:49.005Z,5.50
2023-04-14T02:30:20.656Z,5.40
2023-04-14T02:32:54.709Z,5.60
2023-04-14T02:35:39.298Z,5.60
2023-04-14T02:38:14.959Z,5.70
2023-04-14T02:40:43.724Z,5.80
2023-04-14T02:43:19.854Z,5.80
2023-04-14T02:45:50.437Z,5.90
2023-04-14T02:48:19.927Z,5.80
2023-04-14T02:50:50.068Z,5.80
2023-04-14T02:53:23.421Z,5.70
2023-04-14T02:55:59.475Z,5.60
2023-04-14T02:58:31.309Z,5.70
2023-04-14T03:01:00.670Z,5.70
2023-04-14T03:03:29.830Z,5.70
2023-04-14T03:06:00.378Z,5.70
2023-04-14T03:08:31.908Z,5.80
2023-04-14T03:11:01.952Z,5.80
2023-04-14T03:13:32.346Z,5.80
2023-04-14T03:16:00.683Z,5.80
2023-04-14T03:18:29.343Z,5.90
2023-04-14T03:20:58.545Z,5.90
2023-04-14T03:23:27.335Z,5.90
2023-04-14T03:26:00.682Z,5.90
2023-04-14T03:28:32.146Z,5.90
2023-04-14T03:31:02.639Z,5.80
2023-04-14T03:33:40.060Z,5.80
2023-04-14T03:36:12.734Z,5.80
2023-04-14T03:38:43.540Z,5.80
2023-04-14T03:41:13.243Z,5.80
2023-04-14T03:43:42.487Z,5.80
2023-04-14T03:46:15.353Z,5.80
2023-04-14T03:48:45.635Z,5.70
2023-04-14T03:51:24.558Z,5.70
2023-04-14T03:53:58.038Z,5.70
2023-04-14T03:56:27.350Z,5.70
2023-04-14T03:58:57.074Z,5.80
2023-04-14T04:01:27.143Z,5.70
2023-04-14T04:03:56.247Z,5.70
2023-04-14T04:06:25.508Z,5.70
2023-04-14T04:08:54.679Z,5.60
2023-04-14T04:11:23.728Z,5.50
2023-04-14T04:13:54.532Z,5.40
2023-04-14T04:16:23.653Z,5.40
2023-04-14T04:18:52.412Z,5.40
2023-04-14T04:21:28.704Z,5.40
2023-04-14T04:23:58.447Z,5.50
2023-04-14T04:26:27.029Z,5.50
2023-04-14T04:28:56.048Z,5.50
2023-04-14T04:31:25.958Z,5.50
2023-04-14T04:33:54.307Z,5.50
2023-04-14T04:36:22.592Z,5.50
2023-04-14T04:38:51.746Z,5.60
2023-04-14T04:41:23.692Z,5.60
2023-04-14T04:43:52.951Z,5.60
2023-04-14T04:46:21.276Z,5.60
2023-04-14T04:51:34.603Z,5.50
2023-04-14T04:54:03.862Z,5.50
2023-04-14T04:56:32.216Z,5.50
2023-04-14T04:59:03.066Z,5.60
2023-04-14T05:01:31.807Z,5.60
2023-04-14T05:04:00.000Z,5.60
2023-04-14T05:06:29.427Z,5.70
2023-04-14T05:08:57.517Z,5.60
2023-04-14T05:11:25.616Z,5.50
2023-04-14T05:13:53.727Z,5.60
2023-04-14T05:16:21.915Z,5.60
2023-04-14T05:18:50.137Z,5.50
2023-04-14T05:21:18.292Z,5.60
2023-04-14T05:23:46.852Z,5.70
2023-04-14T05:26:38.741Z,5.70
2023-04-14T05:29:03.358Z,5.70
2023-04-14T05:31:31.870Z,5.80
2023-04-14T05:34:00.263Z,5.90
2023-04-14T05:36:28.829Z,5.80
2023-04-14T05:38:56.965Z,5.80
2023-04-14T05:41:25.048Z,5.80
2023-04-14T05:43:53.233Z,5.80
2023-04-14T05:46:21.350Z,5.80
2023-04-14T05:48:49.470Z,5.90
2023-04-14T05:51:18.000Z,5.90
2023-04-14T05:53:46.190Z,6.00
2023-04-14T05:56:14.397Z,6.00
2023-04-14T05:58:45.615Z,6.10
2023-04-14T06:01:17.764Z,6.10
2023-04-14T06:03:46.386Z,6.20
2023-04-14T06:06:14.549Z,6.30
2023-04-14T06:08:42.702Z,6.30
2023-04-14T06:11:10.736Z,6.30
2023-04-14T06:13:38.929Z,6.30
2023-04-14T06:16:07.225Z,6.40
2023-04-14T06:18:35.946Z,6.50
2023-04-14T06:21:04.482Z,6.60
2023-04-14T06:23:36.585Z,6.50
2023-04-14T06:26:07.671Z,6.50
2023-04-14T06:28:35.856Z,6.50
2023-04-14T06:31:04.110Z,6.60
2023-04-14T06:33:33.167Z,6.70
2023-04-14T06:36:04.500Z,6.70
2023-04-14T06:38:38.659Z,6.80
2023-04-14T06:41:09.154Z,6.90
2023-04-14T06:43:38.268Z,6.90
2023-04-14T06:46:08.059Z,6.90
2023-04-14T06:48:36.506Z,6.90
2023-04-14T06:51:05.139Z,6.90
2023-04-14T06:53:33.234Z,6.90
2023-04-14T06:56:02.794Z,7.00
2023-04-14T06:58:31.025Z,7.10
2023-04-14T07:00:59.805Z,7.10
2023-04-14T07:03:28.471Z,7.20
2023-04-14T07:05:56.479Z,7.20
2023-04-14T07:08:38.922Z,7.20
2023-04-14T07:11:09.554Z,7.30
2023-04-14T07:13:40.621Z,7.30
2023-04-14T07:16:11.277Z,7.30
2023-04-14T07:18:42.424Z,7.40
2023-04-14T07:21:10.650Z,7.50
2023-04-14T07:23:38.846Z,7.50
2023-04-14T07:26:07.773Z,7.50
2023-04-14T07:28:36.107Z,7.60
2023-04-14T07:31:11.295Z,7.70
2023-04-14T07:33:44.583Z,7.70
2023-04-14T07:36:15.990Z,7.80
2023-04-14T07:38:45.159Z,7.80
2023-04-14T07:41:13.420Z,7.80
2023-04-14T07:43:41.614Z,7.80
2023-04-14T07:46:09.777Z,7.80
2023-04-14T07:48:38.675Z,7.80
2023-04-14T07:51:07.840Z,7.90
2023-04-14T07:53:36.190Z,8.00
2023-04-14T07:56:04.605Z,8.10
2023-04-14T07:58:32.731Z,8.10
2023-04-14T08:01:00.813Z,8.20
2023-04-14T08:03:29.125Z,8.20
2023-04-14T08:05:57.728Z,8.40
2023-04-14T08:08:26.148Z,8.60
2023-04-14T08:10:54.253Z,8.80
2023-04-14T08:13:22.429Z,9.00
2023-04-14T08:15:50.702Z,9.20
2023-04-14T08:18:19.144Z,9.30
2023-04-14T08:20:47.283Z,9.50
2023-04-14T08:23:15.446Z,9.80
2023-04-14T08:25:43.838Z,10.00
2023-04-14T08:28:14.980Z,10.00
2023-04-14T08:30:43.188Z,9.90
2023-04-14T08:33:11.390Z,9.90
2023-04-14T08:35:42.524Z,10.00
2023-04-14T08:38:11.309Z,10.00
2023-04-14T08:40:43.231Z,10.00
2023-04-14T08:43:14.794Z,10.20
2023-04-14T08:45:44.787Z,10.50
2023-04-14T08:48:13.281Z,10.80
2023-04-14T08:50:48.708Z,10.90
2023-04-14T08:53:17.461Z,11.00
2023-04-14T08:55:45.925Z,11.00
2023-04-14T08:58:14.021Z,11.00
2023-04-14T09:00:42.552Z,11.20
2023-04-14T09:03:11.010Z,11.30
2023-04-14T09:05:39.489Z,11.20
2023-04-14T09:08:07.621Z,11.20
2023-04-14T09:10:37.516Z,11.10
2023-04-14T09:13:07.602Z,11.20
2023-04-14T09:15:39.679Z,11.20
2023-04-14T09:18:08.809Z,11.00
2023-04-14T09:20:40.755Z,11.00
2023-04-14T09:23:11.033Z,11.00
2023-04-14T09:25:39.758Z,10.90
2023-04-14T09:28:13.787Z,10.80
2023-04-14T09:30:45.169Z,10.70
2023-04-14T09:35:51.120Z,10.70
2023-04-14T09:38:35.755Z,10.70
2023-04-14T09:41:05.624Z,10.60
2023-04-14T09:43:33.881Z,10.50
2023-04-14T09:46:09.673Z,10.50
2023-04-14T09:48:41.219Z,10.50
2023-04-14T09:51:12.206Z,10.60
2023-04-14T09:53:42.463Z,10.40
2023-04-14T09:56:11.917Z,10.40
2023-04-14T09:58:41.011Z,10.50
2023-04-14T10:01:19.256Z,10.60
2023-04-14T10:03:51.208Z,10.70
2023-04-14T10:06:20.580Z,10.90
2023-04-14T10:08:53.440Z,11.10
2023-04-14T10:11:21.597Z,11.30
2023-04-14T10:13:54.815Z,11.50
2023-04-14T10:16:23.525Z,11.70
2023-04-14T10:18:53.006Z,11.80
2023-04-14T10:21:24.146Z,12.00
2023-04-14T10:23:52.617Z,12.50
2023-04-14T10:26:21.184Z,12.90
2023-04-14T10:28:51.099Z,13.20
2023-04-14T10:31:22.065Z,12.90
2023-04-14T10:33:50.173Z,13.20
2023-04-14T10:36:25.805Z,13.20
2023-04-14T10:39:02.727Z,13.50
2023-04-14T10:41:48.230Z,13.70
2023-04-14T10:44:29.804Z,14.00
2023-04-14T10:46:58.652Z,13.80
2023-04-14T10:49:30.452Z,13.60
2023-04-14T10:52:03.447Z,13.50
2023-04-14T10:54:51.436Z,13.60
2023-04-14T10:57:21.760Z,13.70
2023-04-14T10:59:50.818Z,13.60
2023-04-14T11:02:33.231Z,13.60
2023-04-14T11:05:08.485Z,13.70
2023-04-14T11:07:43.184Z,13.70
2023-04-14T11:10:28.745Z,13.80
2023-04-14T11:13:06.416Z,14.00
2023-04-14T11:15:48.574Z,14.20
2023-04-14T11:18:38.826Z,14.40
2023-04-14T11:21:12.176Z,14.40
2023-04-14T11:23:43.728Z,14.40
2023-04-14T11:26:13.747Z,14.20
2023-04-14T11:28:43.774Z,14.00
2023-04-14T11:31:16.663Z,13.60
2023-04-14T11:33:49.374Z,13.50
2023-04-14T11:36:18.491Z,13.30
2023-04-14T11:38:47.604Z,13.50
2023-04-14T11:41:17.188Z,13.70
2023-04-14T11:43:48.054Z,14.10
2023-04-14T11:46:17.784Z,14.30
2023-04-14T11:48:46.041Z,14.40
2023-04-14T11:51:14.712Z,14.40
2023-04-14T11:53:44.470Z,14.50
2023-04-14T11:56:14.128Z,14.60
2023-04-14T11:58:42.287Z,14.40
2023-04-14T12:01:10.394Z,14.50
2023-04-14T12:03:40.498Z,14.50
2023-04-14T12:06:11.489Z,14.40
2023-04-14T12:08:39.562Z,14.30
2023-04-14T12:11:12.983Z,14.30
2023-04-14T12:13:42.028Z,14.20
2023-04-14T12:16:10.608Z,14.30
2023-04-14T12:18:38.705Z,14.40
2023-04-14T12:21:09.792Z,14.50
2023-04-14T12:23:41.275Z,14.50
2023-04-14T12:26:13.369Z,14.20
2023-04-14T12:28:43.230Z,14.20
2023-04-14T12:31:11.767Z,14.20
2023-04-14T12:33:39.938Z,14.40
2023-04-14T12:36:17.281Z,14.40
2023-04-14T12:38:49.169Z,14.40
2023-04-14T12:41:24.321Z,14.40
2023-04-14T12:43:55.617Z,14.50
2023-04-14T12:46:27.010Z,14.80
2023-04-14T12:48:57.921Z,14.90
2023-04-14T12:51:27.174Z,15.10
2023-04-14T12:54:10.298Z,15.30
2023-04-14T12:56:45.136Z,15.20
2023-04-14T12:59:13.631Z,15.10
2023-04-14T13:01:42.383Z,15.10
2023-04-14T13:04:10.696Z,15.10
2023-04-14T13:06:40.900Z,15.00
2023-04-14T13:09:09.283Z,14.90
2023-04-14T13:11:37.797Z,14.60
2023-04-14T13:14:05.926Z,14.60
2023-04-14T13:16:34.237Z,14.60
2023-04-14T13:19:02.819Z,14.50
2023-04-14T13:21:31.090Z,14.40
2023-04-14T13:23:59.229Z,14.20
2023-04-14T13:26:27.309Z,14.20
2023-04-14T13:28:55.352Z,14.10
2023-04-14T13:31:23.686Z,14.00
2023-04-14T13:33:51.822Z,14.10
2023-04-14T13:36:19.864Z,14.20
2023-04-14T13:38:48.695Z,14.30
2023-04-14T13:41:16.967Z,14.30
2023-04-14T13:43:45.239Z,14.20
2023-04-14T13:46:13.350Z,14.10
2023-04-14T13:48:41.470Z,14.10
2023-04-14T13:51:09.731Z,14.00
2023-04-14T13:53:37.854Z,14.00
2023-04-14T13:56:06.417Z,14.00
2023-04-14T13:58:34.517Z,14.30
2023-04-14T14:01:09.904Z,14.40
2023-04-14T14:03:39.601Z,14.60
2023-04-14T14:06:08.799Z,14.70
2023-04-14T14:08:40.208Z,14.90
2023-04-14T14:11:10.773Z,15.00
2023-04-14T14:13:47.174Z,15.00
2023-04-14T14:16:20.267Z,15.20
2023-04-14T14:18:57.500Z,15.30
2023-04-14T14:21:25.586Z,15.60
2023-04-14T14:23:53.821Z,15.70
2023-04-14T14:26:21.882Z,15.50
2023-04-14T14:28:49.917Z,15.40
2023-04-14T14:31:18.149Z,15.20
2023-04-14T14:33:46.255Z,14.90
2023-04-14T14:36:16.270Z,14.60
2023-04-14T14:38:44.407Z,14.40
2023-04-14T14:41:12.925Z,14.10
2023-04-14T14:43:40.990Z,13.60
2023-04-14T14:46:09.195Z,13.40
2023-04-14T14:48:37.577Z,13.30
2023-04-14T14:51:05.972Z,13.00
2023-04-14T14:53:34.564Z,12.70
2023-04-14T14:56:02.704Z,12.60
2023-04-14T14:58:31.019Z,12.40
2023-04-14T15:00:59.148Z,12.40
2023-04-14T15:03:27.402Z,12.50
2023-04-14T15:05:55.487Z,12.60
2023-04-14T15:08:23.743Z,12.50
2023-04-14T15:10:52.676Z,12.60
2023-04-14T15:13:20.858Z,12.60
2023-04-14T15:15:49.091Z,12.60
2023-04-14T15:18:17.393Z,12.60
2023-04-14T15:20:45.490Z,12.60
2023-04-14T15:23:13.522Z,12.60
2023-04-14T15:25:41.913Z,12.60
2023-04-14T15:28:09.980Z,12.60
2023-04-14T15:30:38.076Z,12.60
2023-04-14T15:33:06.288Z,12.70
2023-04-14T15:35:42.693Z,12.70
2023-04-14T15:38:13.779Z,12.50
2023-04-14T15:40:47.901Z,12.60
2023-04-14T15:43:17.474Z,12.50
2023-04-14T15:45:48.786Z,12.50
2023-04-14T15:48:16.863Z,12.50
2023-04-14T15:50:45.215Z,12.50
2023-04-14T15:53:13.456Z,12.50
2023-04-14T15:55:41.551Z,12.60
2023-04-14T15:58:09.698Z,12.60
2023-04-14T16:00:37.766Z,12.60
2023-04-14T16:03:06.085Z,12.60
2023-04-14T16:05:34.345Z,12.60
2023-04-14T16:08:02.469Z,12.60
2023-04-14T16:10:30.944Z,12.70
2023-04-14T16:12:58.959Z,12.70
2023-04-14T16:15:28.576Z,12.70
2023-04-14T16:17:56.904Z,12.60
2023-04-14T16:20:25.056Z,12.30
2023-04-14T16:22:53.732Z,12.10
2023-04-14T16:25:23.915Z,12.00
2023-04-14T16:27:52.140Z,12.00
2023-04-14T16:30:20.506Z,11.90
2023-04-14T16:32:49.285Z,11.80
2023-04-14T16:35:18.097Z,11.70
2023-04-14T16:37:46.177Z,11.50
2023-04-14T16:40:14.268Z,11.50
2023-04-14T16:42:42.508Z,11.40
2023-04-14T16:45:10.842Z,11.40
2023-04-14T16:47:38.992Z,11.50
2023-04-14T16:50:07.430Z,11.60
2023-04-14T16:52:36.357Z,11.60
2023-04-14T16:55:04.594Z,11.60
2023-04-14T16:57:33.905Z,11.60
2023-04-14T17:00:01.930Z,11.50
2023-04-14T17:02:30.156Z,11.60
2023-04-14T17:04:59.745Z,11.60
2023-04-14T17:07:27.951Z,11.60
2023-04-14T17:09:56.049Z,11.60
2023-04-14T17:12:24.797Z,11.60
2023-04-14T17:14:52.871Z,11.50
2023-04-14T17:17:24.772Z,11.50
2023-04-14T17:19:54.046Z,11.40
2023-04-14T17:22:31.300Z,11.30
2023-04-14T17:24:59.606Z,11.30
2023-04-14T17:27:27.838Z,11.20
2023-04-14T17:29:56.013Z,11.10
2023-04-14T17:32:24.238Z,11.10
2023-04-14T17:34:52.948Z,11.10
2023-04-14T17:37:21.039Z,11.00
2023-04-14T17:39:50.564Z,10.90
2023-04-14T17:42:18.669Z,10.70
2023-04-14T17:44:46.763Z,10.60
2023-04-14T17:47:16.682Z,10.50
2023-04-14T17:49:45.274Z,10.40
2023-04-14T17:52:21.993Z,10.30
2023-04-14T17:54:51.198Z,10.20
2023-04-14T17:57:19.411Z,10.00
2023-04-14T17:59:47.521Z,10.00
2023-04-14T18:02:16.914Z,10.10
2023-04-14T18:04:45.061Z,10.00
2023-04-14T18:07:13.127Z,10.00
2023-04-14T18:09:41.414Z,10.00
2023-04-14T18:12:09.773Z,10.00
2023-04-14T18:14:38.139Z,10.00
2023-04-14T18:17:07.470Z,9.90
2023-04-14T18:19:37.143Z,9.90
2023-04-14T18:22:05.526Z,9.90
2023-04-14T18:28:02.753Z,9.80
2023-04-14T18:29:54.439Z,9.80
2023-04-14T18:32:23.639Z,9.60
2023-04-14T18:34:51.719Z,9.50
2023-04-14T18:37:53.806Z,9.50
2023-04-14T18:40:21.930Z,9.50
2023-04-14T18:42:59.949Z,9.50
2023-04-14T18:45:29.311Z,9.40
2023-04-14T18:48:01.546Z,9.50
2023-04-14T18:50:38.138Z,9.40
2023-04-14T18:53:07.411Z,9.40
2023-04-14T18:55:38.348Z,9.40
2023-04-14T18:58:14.151Z,9.40
2023-04-14T19:00:42.484Z,9.40
2023-04-14T19:03:11.867Z,9.50
2023-04-14T19:05:40.170Z,9.50
2023-04-14T19:08:13.715Z,9.50
2023-04-14T19:10:42.082Z,9.50
2023-04-14T19:13:12.406Z,9.50
2023-04-14T19:15:40.522Z,9.40
2023-04-14T19:18:08.610Z,9.40
2023-04-14T19:20:36.740Z,9.40
2023-04-14T19:23:05.159Z,9.40
2023-04-14T19:25:33.269Z,9.40
2023-04-14T19:28:03.415Z,9.40
2023-04-14T19:30:31.782Z,9.40
2023-04-14T19:32:59.850Z,9.30
2023-04-14T19:35:28.168Z,9.30
2023-04-14T19:37:58.277Z,9.30
2023-04-14T19:40:26.635Z,9.30
2023-04-14T19:42:57.554Z,9.30
2023-04-14T19:45:25.724Z,9.20
2023-04-14T19:47:54.140Z,9.20
2023-04-14T19:50:23.944Z,9.10
2023-04-14T19:52:57.462Z,9.00
2023-04-14T19:55:28.869Z,8.90
2023-04-14T19:57:57.468Z,8.90
2023-04-14T20:00:26.908Z,8.90
2023-04-14T20:02:56.731Z,9.00
2023-04-14T20:05:25.401Z,9.00
2023-04-14T20:07:53.626Z,9.00
2023-04-14T20:10:21.634Z,9.00
2023-04-14T20:12:50.587Z,8.90
2023-04-14T20:15:18.648Z,8.90
2023-04-14T20:17:49.253Z,8.90
2023-04-14T20:20:17.837Z,8.60
2023-04-14T20:22:46.790Z,8.50
2023-04-14T20:25:16.073Z,8.50
2023-04-14T20:27:44.117Z,8.50
2023-04-14T20:30:13.815Z,8.40
2023-04-14T20:32:41.957Z,8.30
2023-04-14T20:35:10.063Z,8.20
2023-04-14T20:37:38.062Z,8.10
2023-04-14T20:40:06.650Z,8.00
2023-04-14T20:42:38.053Z,7.90
2023-04-14T20:45:13.409Z,8.00
2023-04-14T20:48:03.412Z,8.00
2023-04-14T20:50:34.908Z,8.00
2023-04-14T20:53:05.905Z,8.10
2023-04-14T20:55:33.934Z,8.00
2023-04-14T20:58:01.935Z,7.90
2023-04-14T21:00:32.448Z,7.70
2023-04-14T21:03:02.273Z,7.50
2023-04-14T21:05:30.507Z,7.40
2023-04-14T21:07:58.624Z,7.40
2023-04-14T21:10:27.151Z,7.30
2023-04-14T21:15:27.145Z,7.30
2023-04-14T21:15:56.256Z,7.20
2023-04-14T21:18:25.324Z,7.30
2023-04-14T21:20:53.400Z,7.30
2023-04-14T21:23:22.226Z,7.10
2023-04-14T21:25:50.256Z,7.00
2023-04-14T21:28:18.339Z,6.90
2023-04-14T21:30:46.461Z,6.80
2023-04-14T21:33:15.030Z,6.90
2023-04-14T21:35:43.608Z,6.90
2023-04-14T21:38:11.708Z,7.00
2023-04-14T21:40:40.140Z,7.00
2023-04-14T21:43:12.425Z,7.00
2023-04-14T21:45:40.687Z,7.10
2023-04-14T21:48:12.322Z,7.10
2023-04-14T21:50:47.410Z,7.10
2023-04-14T21:53:15.569Z,7.10
2023-04-14T21:55:43.897Z,7.10
2023-04-14T21:58:12.298Z,7.20
2023-04-14T22:00:42.237Z,7.10
2023-04-14T22:05:38.453Z,6.80
2023-04-14T22:08:06.452Z,6.80
2023-04-14T22:10:34.625Z,6.90
2023-04-14T22:13:02.666Z,6.90
2023-04-14T22:15:30.755Z,6.90
2023-04-14T22:18:00.206Z,6.90
2023-04-14T22:20:28.287Z,6.90
2023-04-14T22:22:56.756Z,6.90
2023-04-14T22:25:24.882Z,6.90
2023-04-14T22:27:52.910Z,6.90
2023-04-14T22:30:20.988Z,6.80
2023-04-14T22:32:49.059Z,6.70
2023-04-14T22:35:17.698Z,6.70
2023-04-14T22:37:45.689Z,6.70
2023-04-14T22:40:13.789Z,6.60
2023-04-14T22:42:41.880Z,6.60
2023-04-14T22:45:10.132Z,6.60
2023-04-14T22:47:38.274Z,6.50
2023-04-14T22:50:07.131Z,6.60
2023-04-14T22:52:35.155Z,6.70
2023-04-14T22:55:03.589Z,6.80
2023-04-14T22:57:31.626Z,6.90
2023-04-14T22:59:59.727Z,7.00
2023-04-14T23:02:28.791Z,7.00
2023-04-14T23:04:57.097Z,7.00
2023-04-14T23:07:25.072Z,7.00
2023-04-14T23:09:53.251Z,7.00
2023-04-14T23:12:21.381Z,7.00
2023-04-14T23:14:49.516Z,7.00
2023-04-14T23:17:18.081Z,7.00
2023-04-14T23:19:47.571Z,7.00
2023-04-14T23:22:16.641Z,7.00
2023-04-14T23:24:44.689Z,7.00
2023-04-14T23:27:12.734Z,6.90
2023-04-14T23:29:40.897Z,6.80
2023-04-14T23:32:12.047Z,6.90
2023-04-14T23:34:40.031Z,6.90
2023-04-14T23:37:11.410Z,6.90
2023-04-14T23:39:46.777Z,6.90
2023-04-14T23:42:15.669Z,6.90
2023-04-14T23:44:44.258Z,6.80
2023-04-14T23:47:12.377Z,6.80
2023-04-14T23:49:40.489Z,6.70
2023-04-14T23:52:08.957Z,6.70
2023-04-14T23:54:36.986Z,6.70
2023-04-14T23:57:05.544Z,6.70
2023-04-14T23:59:33.958Z,6.60
